createdAt,value
2019-03-23T00:01:03.043Z,6.37
2019-03-23T00:03:33.525Z,9.27
2019-03-23T00:06:03.915Z,4.97
2019-03-23T00:08:34.365Z,5.90
2019-03-23T00:11:04.760Z,9.10
2019-03-23T00:13:35.209Z,7.27
2019-03-23T00:16:05.627Z,11.53
2019-03-23T00:18:35.999Z,10.07
2019-03-23T00:21:06.428Z,9.30
2019-03-23T00:23:36.738Z,10.83
2019-03-23T00:26:07.155Z,12.90
2019-03-23T00:28:37.668Z,19.77
2019-03-23T00:31:08.125Z,13.07
2019-03-23T00:33:38.599Z,20.97
2019-03-23T00:36:08.988Z,13.83
2019-03-23T00:38:39.364Z,20.20
2019-03-23T00:41:10.153Z,14.40
2019-03-23T00:43:40.613Z,12.07
2019-03-23T00:46:11.069Z,14.40
2019-03-23T00:48:41.518Z,10.83
2019-03-23T00:51:11.965Z,9.63
2019-03-23T00:53:42.335Z,10.80
2019-03-23T00:56:12.764Z,12.27
2019-03-23T00:58:43.169Z,13.43
2019-03-23T01:01:13.630Z,11.30
2019-03-23T01:03:44.076Z,11.00
2019-03-23T01:06:14.523Z,7.93
2019-03-23T01:08:45.000Z,9.90
2019-03-23T01:11:17.426Z,10.83
2019-03-23T01:13:47.559Z,10.87
2019-03-23T01:16:17.976Z,11.23
2019-03-23T01:18:48.360Z,9.77
2019-03-23T01:21:19.848Z,11.00
2019-03-23T01:23:50.267Z,14.23
2019-03-23T01:26:21.684Z,16.03
2019-03-23T01:28:52.193Z,18.53
2019-03-23T01:31:22.598Z,18.23
2019-03-23T01:33:53.135Z,19.73
2019-03-23T01:36:23.520Z,18.43
2019-03-23T01:38:56.359Z,13.03
2019-03-23T01:41:26.790Z,14.07
2019-03-23T01:43:57.201Z,13.43
2019-03-23T01:46:27.621Z,14.07
2019-03-23T01:48:57.981Z,10.97
2019-03-23T01:51:28.375Z,9.53
2019-03-23T01:53:58.803Z,9.70
2019-03-23T01:56:29.226Z,8.70
2019-03-23T01:58:59.633Z,11.20
2019-03-23T02:01:30.037Z,11.33
2019-03-23T02:04:00.477Z,15.40
2019-03-23T02:06:30.911Z,14.80
2019-03-23T02:09:01.401Z,16.53
2019-03-23T02:11:31.796Z,14.57
2019-03-23T02:14:03.686Z,15.27
2019-03-23T02:16:34.098Z,17.70
2019-03-23T02:19:04.731Z,14.20
2019-03-23T02:21:35.065Z,11.00
2019-03-23T02:24:05.568Z,8.57
2019-03-23T02:26:35.911Z,6.97
2019-03-23T02:29:09.417Z,9.10
2019-03-23T02:31:39.792Z,6.53
2019-03-23T02:34:10.260Z,3.70
2019-03-23T02:36:40.631Z,4.20
2019-03-23T02:39:11.069Z,4.13
2019-03-23T02:41:41.447Z,4.67
2019-03-23T02:44:11.827Z,4.50
2019-03-23T02:46:42.268Z,6.03
2019-03-23T02:49:12.642Z,8.88
2019-03-23T02:51:43.079Z,13.20
2019-03-23T02:54:14.932Z,13.60
2019-03-23T02:56:45.686Z,14.10
2019-03-23T02:59:16.120Z,19.97
2019-03-23T03:01:46.515Z,16.70
2019-03-23T03:04:17.614Z,13.13
2019-03-23T03:06:48.031Z,9.23
2019-03-23T03:09:18.426Z,7.47
2019-03-23T03:11:48.871Z,5.30
2019-03-23T03:14:19.274Z,5.67
2019-03-23T03:16:49.730Z,6.07
2019-03-23T03:19:20.141Z,7.63
2019-03-23T03:21:50.614Z,7.60
2019-03-23T03:24:20.996Z,9.55
2019-03-23T03:26:51.428Z,9.40
2019-03-23T03:29:21.971Z,7.40
2019-03-23T03:31:52.357Z,8.53
2019-03-23T03:34:22.705Z,8.60
2019-03-23T03:36:53.171Z,10.37
2019-03-23T03:39:23.606Z,12.37
2019-03-23T03:41:54.071Z,9.57
2019-03-23T03:44:24.751Z,10.97
2019-03-23T03:46:55.158Z,14.00
2019-03-23T03:49:27.534Z,15.37
2019-03-23T03:51:57.628Z,15.40
2019-03-23T03:54:28.068Z,15.03
2019-03-23T03:56:58.488Z,17.03
2019-03-23T03:59:28.873Z,13.27
2019-03-23T04:01:59.300Z,13.48
2019-03-23T04:04:29.720Z,15.50
2019-03-23T04:07:00.117Z,12.07
2019-03-23T04:09:30.910Z,7.53
2019-03-23T04:12:01.355Z,9.50
2019-03-23T04:14:31.743Z,8.37
2019-03-23T04:17:02.179Z,6.27
2019-03-23T04:19:32.541Z,6.37
2019-03-23T04:22:03.029Z,5.10
2019-03-23T04:24:36.164Z,3.83
2019-03-23T04:27:06.634Z,2.50
2019-03-23T04:29:37.230Z,4.10
2019-03-23T04:32:07.802Z,4.73
2019-03-23T04:34:38.271Z,5.03
2019-03-23T04:37:08.691Z,3.93
2019-03-23T04:39:39.095Z,5.73
2019-03-23T04:42:09.495Z,2.87
2019-03-23T04:44:40.777Z,3.97
2019-03-23T04:47:16.435Z,5.13
2019-03-23T04:49:48.967Z,2.30
2019-03-23T04:52:19.414Z,2.80
2019-03-23T04:54:49.896Z,2.73
2019-03-23T04:57:20.299Z,4.90
2019-03-23T04:59:50.717Z,4.43
2019-03-23T05:02:21.283Z,2.57
2019-03-23T05:04:51.673Z,2.80
2019-03-23T05:07:22.195Z,3.57
2019-03-23T05:09:52.631Z,3.50
2019-03-23T05:12:23.048Z,2.57
2019-03-23T05:14:53.556Z,2.97
2019-03-23T05:17:27.065Z,2.90
2019-03-23T05:19:57.543Z,2.33
2019-03-23T05:22:27.916Z,3.47
2019-03-23T05:24:58.401Z,5.37
2019-03-23T05:27:28.943Z,2.87
2019-03-23T05:30:00.881Z,3.33
2019-03-23T05:32:32.909Z,3.57
2019-03-23T05:35:03.845Z,4.03
2019-03-23T05:37:34.307Z,3.63
2019-03-23T05:40:07.207Z,1.43
2019-03-23T05:42:37.686Z,2.93
2019-03-23T05:45:08.522Z,2.90
2019-03-23T05:47:38.917Z,2.20
2019-03-23T05:50:09.949Z,2.93
2019-03-23T05:52:40.432Z,5.03
2019-03-23T05:55:13.687Z,2.60
2019-03-23T05:57:44.632Z,2.90
2019-03-23T06:00:16.931Z,4.53
2019-03-23T06:02:47.497Z,3.83
2019-03-23T06:05:18.065Z,3.93
2019-03-23T06:07:48.545Z,4.03
2019-03-23T06:10:20.802Z,3.27
2019-03-23T06:12:51.147Z,4.07
2019-03-23T06:15:21.640Z,3.37
2019-03-23T06:17:52.086Z,2.67
2019-03-23T06:20:29.498Z,4.87
2019-03-23T06:23:00.416Z,2.90
2019-03-23T06:25:30.884Z,1.80
2019-03-23T06:28:03.574Z,4.67
2019-03-23T06:30:35.805Z,4.10
2019-03-23T06:33:06.337Z,2.80
2019-03-23T06:35:36.872Z,3.73
2019-03-23T06:38:08.681Z,2.40
2019-03-23T06:40:41.541Z,4.30
2019-03-23T06:43:17.350Z,4.45
2019-03-23T06:45:49.029Z,3.60
2019-03-23T06:48:19.509Z,1.73
2019-03-23T06:50:51.619Z,8.20
2019-03-23T06:53:22.104Z,3.20
2019-03-23T06:55:52.647Z,3.67
2019-03-23T06:58:22.987Z,4.40
2019-03-23T07:00:53.402Z,1.60
2019-03-23T07:03:23.787Z,2.03
2019-03-23T07:05:54.179Z,3.20
2019-03-23T07:08:32.028Z,5.10
2019-03-23T07:10:56.758Z,2.57
2019-03-23T07:13:27.375Z,5.67
2019-03-23T07:15:57.817Z,2.70
2019-03-23T07:18:28.205Z,3.17
2019-03-23T07:20:58.652Z,4.70
2019-03-23T07:23:29.116Z,2.27
2019-03-23T07:25:59.566Z,1.90
2019-03-23T07:28:29.958Z,2.10
2019-03-23T07:31:00.673Z,3.23
2019-03-23T07:33:31.181Z,6.43
2019-03-23T07:36:03.344Z,2.50
2019-03-23T07:38:33.746Z,2.30
2019-03-23T07:41:04.187Z,2.87
2019-03-23T07:43:34.601Z,4.73
2019-03-23T07:46:04.997Z,5.30
2019-03-23T07:48:35.523Z,3.83
2019-03-23T07:51:05.925Z,4.50
2019-03-23T07:53:36.373Z,3.73
2019-03-23T07:56:06.776Z,2.23
2019-03-23T07:58:37.468Z,3.87
2019-03-23T08:01:07.922Z,3.67
2019-03-23T08:03:38.500Z,4.27
2019-03-23T08:06:10.952Z,2.90
2019-03-23T08:08:41.089Z,2.63
2019-03-23T08:11:11.468Z,5.63
2019-03-23T08:13:41.953Z,2.83
2019-03-23T08:16:13.546Z,2.20
2019-03-23T08:18:44.048Z,4.37
2019-03-23T08:21:14.528Z,2.60
2019-03-23T08:23:45.063Z,3.20
2019-03-23T08:26:15.860Z,2.93
2019-03-23T08:28:46.316Z,3.27
2019-03-23T08:31:16.789Z,3.47
2019-03-23T08:33:47.188Z,2.57
2019-03-23T08:36:17.693Z,2.70
2019-03-23T08:38:48.240Z,1.93
2019-03-23T08:41:21.793Z,2.63
2019-03-23T08:43:52.350Z,3.55
2019-03-23T08:46:22.796Z,2.63
2019-03-23T08:48:53.200Z,2.37
2019-03-23T08:51:23.628Z,2.57
2019-03-23T08:53:54.041Z,2.10
2019-03-23T08:56:24.440Z,3.60
2019-03-23T08:58:54.822Z,3.03
2019-03-23T09:01:25.242Z,4.27
2019-03-23T09:03:55.731Z,4.30
2019-03-23T09:06:26.139Z,3.67
2019-03-23T09:08:56.532Z,3.67
2019-03-23T09:11:26.924Z,3.33
2019-03-23T09:13:57.323Z,2.87
2019-03-23T09:16:27.722Z,2.57
2019-03-23T09:18:58.139Z,2.70
2019-03-23T09:21:28.562Z,3.70
2019-03-23T09:23:58.928Z,5.60
2019-03-23T09:26:29.805Z,4.77
2019-03-23T09:29:00.160Z,5.05
2019-03-23T09:31:30.682Z,3.40
2019-03-23T09:34:01.059Z,1.57
2019-03-23T09:36:31.545Z,2.60
2019-03-23T09:39:01.902Z,5.13
2019-03-23T09:41:32.383Z,4.67
2019-03-23T09:44:02.748Z,2.63
2019-03-23T09:46:33.188Z,4.30
2019-03-23T09:49:03.736Z,3.43
2019-03-23T09:51:34.083Z,3.53
2019-03-23T09:54:04.530Z,2.83
2019-03-23T09:56:34.937Z,3.37
2019-03-23T09:59:05.335Z,3.67
2019-03-23T10:01:35.813Z,2.00
2019-03-23T10:04:06.264Z,2.97
2019-03-23T10:06:36.751Z,3.85
2019-03-23T10:09:07.277Z,3.30
2019-03-23T10:11:37.737Z,2.00
2019-03-23T10:14:08.255Z,6.27
2019-03-23T10:16:39.511Z,2.77
2019-03-23T10:19:09.892Z,3.67
2019-03-23T10:21:40.342Z,4.77
2019-03-23T10:24:10.732Z,1.80
2019-03-23T10:26:41.204Z,3.93
2019-03-23T10:29:11.679Z,2.93
2019-03-23T10:31:42.225Z,2.90
2019-03-23T10:34:12.652Z,2.40
2019-03-23T10:36:43.041Z,3.67
2019-03-23T10:39:13.458Z,4.90
2019-03-23T10:41:43.930Z,4.00
2019-03-23T10:44:14.364Z,5.90
2019-03-23T10:46:44.753Z,4.23
2019-03-23T10:49:15.092Z,3.83
2019-03-23T10:51:45.532Z,4.27
2019-03-23T10:54:15.945Z,5.83
2019-03-23T10:56:46.487Z,3.17
2019-03-23T10:59:16.941Z,3.67
2019-03-23T11:01:47.421Z,4.17
2019-03-23T11:04:17.986Z,3.63
2019-03-23T11:06:48.378Z,3.37
2019-03-23T11:09:18.795Z,4.23
2019-03-23T11:11:49.230Z,4.67
2019-03-23T11:14:19.552Z,4.90
2019-03-23T11:16:49.957Z,3.37
2019-03-23T11:19:20.373Z,3.33
2019-03-23T11:21:50.830Z,3.67
2019-03-23T11:24:21.261Z,4.53
2019-03-23T11:26:51.706Z,5.30
2019-03-23T11:29:22.193Z,2.97
2019-03-23T11:31:52.702Z,4.08
2019-03-23T11:34:23.095Z,4.23
2019-03-23T11:36:53.843Z,5.83
2019-03-23T11:39:24.223Z,3.87
2019-03-23T11:41:57.513Z,3.13
2019-03-23T11:44:27.954Z,2.93
2019-03-23T11:46:58.480Z,4.53
2019-03-23T11:49:28.921Z,2.83
2019-03-23T11:52:01.732Z,4.57
2019-03-23T11:54:32.196Z,7.03
2019-03-23T11:57:02.585Z,6.03
2019-03-23T11:59:36.101Z,3.33
2019-03-23T12:02:06.508Z,5.13
2019-03-23T12:04:37.019Z,3.40
2019-03-23T12:07:07.452Z,3.60
2019-03-23T12:09:38.744Z,5.73
2019-03-23T12:12:09.107Z,5.40
2019-03-23T12:14:39.547Z,5.03
2019-03-23T12:17:09.931Z,5.37
2019-03-23T12:19:40.423Z,5.10
2019-03-23T12:22:10.892Z,4.13
2019-03-23T12:24:41.558Z,2.67
2019-03-23T12:27:12.073Z,4.33
2019-03-23T12:29:42.501Z,4.30
2019-03-23T12:32:13.244Z,5.03
2019-03-23T12:34:43.646Z,3.53
2019-03-23T12:37:14.061Z,3.53
2019-03-23T12:39:44.524Z,3.73
2019-03-23T12:42:15.031Z,3.50
2019-03-23T12:44:45.488Z,5.77
2019-03-23T12:47:15.990Z,3.40
2019-03-23T12:49:47.517Z,4.03
2019-03-23T12:52:19.357Z,3.40
2019-03-23T12:54:52.651Z,2.50
2019-03-23T12:57:24.746Z,4.07
2019-03-23T12:59:56.729Z,3.83
2019-03-23T13:02:27.298Z,3.83
2019-03-23T13:04:57.736Z,3.67
2019-03-23T13:07:28.222Z,5.13
2019-03-23T13:10:01.544Z,4.00
2019-03-23T13:12:33.438Z,5.27
2019-03-23T13:15:06.425Z,3.50
2019-03-23T13:17:38.743Z,4.00
2019-03-23T13:20:09.780Z,3.50
2019-03-23T13:22:40.188Z,3.67
2019-03-23T13:25:13.400Z,4.70
2019-03-23T13:27:43.883Z,4.40
2019-03-23T13:30:19.139Z,4.50
2019-03-23T13:32:49.634Z,5.40
2019-03-23T13:35:20.039Z,5.73
2019-03-23T13:37:51.132Z,3.57
2019-03-23T13:40:28.613Z,5.20
2019-03-23T13:42:59.142Z,6.17
2019-03-23T13:45:31.563Z,4.70
2019-03-23T13:48:02.264Z,4.07
2019-03-23T13:50:32.799Z,4.47
2019-03-23T13:53:03.133Z,6.63
2019-03-23T13:55:35.219Z,5.73
2019-03-23T13:58:11.501Z,4.40
2019-03-23T14:00:42.222Z,5.17
2019-03-23T14:03:12.927Z,6.60
2019-03-23T14:05:43.421Z,4.30
2019-03-23T14:08:13.831Z,9.07
2019-03-23T14:10:44.259Z,5.60
2019-03-23T14:13:14.735Z,5.67
2019-03-23T14:15:45.158Z,4.70
2019-03-23T14:18:17.388Z,5.90
2019-03-23T14:20:47.642Z,5.93
2019-03-23T14:23:20.979Z,5.43
2019-03-23T14:25:54.033Z,5.83
2019-03-23T14:28:24.773Z,3.83
2019-03-23T14:30:57.948Z,4.57
2019-03-23T14:33:30.090Z,3.90
2019-03-23T14:36:00.496Z,5.30
2019-03-23T14:38:32.629Z,5.23
2019-03-23T14:41:04.188Z,6.70
2019-03-23T14:43:36.325Z,6.23
2019-03-23T14:46:06.817Z,4.73
2019-03-23T14:48:38.716Z,5.33
2019-03-23T14:51:09.110Z,5.47
2019-03-23T14:53:39.695Z,8.60
2019-03-23T14:56:11.603Z,5.70
2019-03-23T14:58:42.088Z,6.77
2019-03-23T15:01:17.951Z,5.67
2019-03-23T15:03:48.486Z,5.17
2019-03-23T15:06:21.159Z,8.23
2019-03-23T15:08:51.618Z,5.33
2019-03-23T15:11:22.049Z,4.90
2019-03-23T15:13:52.587Z,4.77
2019-03-23T15:16:23.046Z,5.47
2019-03-23T15:18:53.468Z,5.33
2019-03-23T15:21:23.840Z,5.30
2019-03-23T15:23:54.270Z,4.47
2019-03-23T15:26:24.802Z,5.37
2019-03-23T15:28:55.248Z,6.30
2019-03-23T15:31:25.663Z,5.60
2019-03-23T15:33:56.142Z,5.07
2019-03-23T15:36:27.845Z,7.90
2019-03-23T15:38:58.384Z,5.40
2019-03-23T15:41:28.795Z,5.63
2019-03-23T15:44:00.683Z,5.33
2019-03-23T15:46:34.057Z,6.23
2019-03-23T15:49:06.996Z,6.03
2019-03-23T15:51:37.391Z,5.80
2019-03-23T15:54:09.603Z,5.27
2019-03-23T15:56:40.056Z,4.60
2019-03-23T15:59:11.902Z,7.13
2019-03-23T16:01:45.531Z,7.00
2019-03-23T16:04:18.208Z,8.00
2019-03-23T16:06:51.540Z,7.87
2019-03-23T16:09:21.905Z,7.57
2019-03-23T16:11:53.838Z,5.63
2019-03-23T16:14:26.086Z,5.97
2019-03-23T16:16:56.616Z,6.67
2019-03-23T16:19:27.019Z,6.20
2019-03-23T16:22:01.026Z,5.70
2019-03-23T16:24:33.030Z,7.45
2019-03-23T16:27:03.591Z,5.73
2019-03-23T16:29:34.053Z,5.27
2019-03-23T16:32:04.407Z,5.93
2019-03-23T16:34:34.832Z,7.37
2019-03-23T16:37:05.240Z,6.00
2019-03-23T16:39:35.767Z,6.93
2019-03-23T16:42:06.202Z,6.77
2019-03-23T16:44:36.678Z,5.97
2019-03-23T16:47:07.069Z,6.27
2019-03-23T16:49:37.535Z,6.47
2019-03-23T16:52:09.422Z,5.90
2019-03-23T16:54:41.452Z,6.47
2019-03-23T16:57:11.937Z,6.03
2019-03-23T16:59:42.303Z,5.70
2019-03-23T17:02:13.942Z,4.80
2019-03-23T17:04:46.380Z,5.83
2019-03-23T17:07:19.763Z,6.70
2019-03-23T17:09:52.448Z,6.20
2019-03-23T17:12:24.700Z,7.10
2019-03-23T17:14:58.901Z,5.03
2019-03-23T17:17:31.744Z,8.63
2019-03-23T17:20:04.094Z,6.57
2019-03-23T17:22:37.959Z,8.07
2019-03-23T17:25:10.276Z,5.43
2019-03-23T17:27:42.898Z,9.13
2019-03-23T17:30:18.269Z,5.93
2019-03-23T17:32:53.742Z,6.00
2019-03-23T17:35:25.899Z,6.17
2019-03-23T17:37:58.282Z,5.50
2019-03-23T17:40:30.771Z,5.73
2019-03-23T17:43:06.150Z,5.90
2019-03-23T17:45:37.147Z,7.93
2019-03-23T17:48:09.539Z,6.58
2019-03-23T17:50:42.016Z,6.10
2019-03-23T17:53:14.499Z,6.37
2019-03-23T17:55:48.852Z,6.70
2019-03-23T17:58:26.070Z,7.30
2019-03-23T18:00:58.507Z,6.97
2019-03-23T18:03:30.811Z,6.53
2019-03-23T18:06:07.332Z,6.73
2019-03-23T18:08:39.366Z,9.33
2019-03-23T18:11:13.098Z,6.50
2019-03-23T18:13:45.462Z,10.30
2019-03-23T18:16:20.704Z,8.07
2019-03-23T18:18:56.120Z,12.43
2019-03-23T18:21:28.233Z,6.43
2019-03-23T18:24:01.461Z,6.53
2019-03-23T18:26:33.691Z,6.27
2019-03-23T18:29:06.836Z,6.70
2019-03-23T18:31:39.443Z,6.20
2019-03-23T18:34:11.892Z,8.17
2019-03-23T18:36:44.200Z,5.87
2019-03-23T18:39:16.781Z,6.90
2019-03-23T18:41:49.198Z,7.87
2019-03-23T18:44:21.845Z,7.20
2019-03-23T18:46:54.549Z,8.80
2019-03-23T18:49:26.955Z,8.63
2019-03-23T18:51:59.388Z,7.00
2019-03-23T18:54:31.881Z,6.00
2019-03-23T18:57:04.191Z,8.53
2019-03-23T18:59:36.751Z,8.30
2019-03-23T19:02:09.096Z,6.97
2019-03-23T19:04:44.136Z,8.13
2019-03-23T19:07:16.342Z,6.70
2019-03-23T19:09:50.326Z,7.63
2019-03-23T19:12:22.765Z,6.07
2019-03-23T19:14:58.167Z,6.83
2019-03-23T19:17:32.278Z,8.37
2019-03-23T19:20:06.324Z,9.70
2019-03-23T19:22:38.489Z,6.37
2019-03-23T19:25:18.143Z,7.40
2019-03-23T19:27:45.969Z,6.37
2019-03-23T19:30:20.851Z,7.40
2019-03-23T19:32:53.244Z,6.53
2019-03-23T19:35:27.120Z,8.30
2019-03-23T19:38:01.521Z,10.50
2019-03-23T19:40:33.296Z,7.77
2019-03-23T19:43:05.957Z,7.60
2019-03-23T19:45:38.481Z,8.37
2019-03-23T19:48:11.163Z,9.60
2019-03-23T19:50:43.767Z,8.57
2019-03-23T19:53:17.590Z,8.80
2019-03-23T19:55:50.240Z,10.03
2019-03-23T19:58:25.272Z,8.57
2019-03-23T20:00:57.541Z,8.50
2019-03-23T20:03:30.897Z,9.60
2019-03-23T20:06:04.741Z,9.40
2019-03-23T20:08:37.290Z,9.30
2019-03-23T20:11:11.496Z,9.60
2019-03-23T20:13:44.361Z,9.30
2019-03-23T20:16:17.469Z,9.63
2019-03-23T20:18:49.881Z,9.43
2019-03-23T20:21:22.198Z,10.20
2019-03-23T20:23:55.836Z,8.13
2019-03-23T20:26:27.973Z,10.63
2019-03-23T20:29:01.344Z,9.37
2019-03-23T20:31:33.740Z,8.27
2019-03-23T20:34:06.040Z,7.20
2019-03-23T20:36:38.456Z,8.70
2019-03-23T20:39:10.772Z,13.43
2019-03-23T20:41:43.855Z,11.37
2019-03-23T20:44:15.892Z,11.20
2019-03-23T20:46:48.373Z,9.17
2019-03-23T20:49:23.432Z,10.20
2019-03-23T20:51:56.088Z,8.40
2019-03-23T20:54:29.878Z,9.07
2019-03-23T20:57:02.278Z,8.33
2019-03-23T20:59:35.523Z,10.17
2019-03-23T21:02:11.148Z,10.37
2019-03-23T21:04:44.648Z,9.90
2019-03-23T21:07:16.909Z,9.17
2019-03-23T21:09:55.157Z,10.67
2019-03-23T21:12:29.568Z,10.07
2019-03-23T21:15:02.803Z,10.37
2019-03-23T21:17:35.816Z,10.13
2019-03-23T21:20:10.185Z,12.07
2019-03-23T21:22:42.125Z,11.70
2019-03-23T21:25:14.179Z,9.73
2019-03-23T21:27:47.579Z,9.07
2019-03-23T21:30:19.640Z,10.83
2019-03-23T21:32:51.327Z,11.80
2019-03-23T21:35:24.382Z,9.93
2019-03-23T21:37:55.507Z,10.67
2019-03-23T21:40:26.300Z,11.17
2019-03-23T21:42:56.893Z,11.40
2019-03-23T21:45:27.423Z,11.23
2019-03-23T21:47:57.975Z,11.70
2019-03-23T21:50:28.488Z,11.20
2019-03-23T21:53:01.536Z,11.67
2019-03-23T21:55:31.972Z,11.73
2019-03-23T21:58:02.379Z,10.53
2019-03-23T22:00:35.859Z,11.73
2019-03-23T22:03:06.738Z,12.03
2019-03-23T22:05:37.113Z,12.20
2019-03-23T22:08:11.069Z,11.67
2019-03-23T22:10:41.449Z,12.70
2019-03-23T22:13:11.868Z,11.87
2019-03-23T22:15:42.317Z,10.97
2019-03-23T22:18:12.697Z,24.20
2019-03-23T22:20:43.175Z,10.53
2019-03-23T22:23:16.219Z,12.97
2019-03-23T22:25:48.883Z,13.63
2019-03-23T22:28:19.425Z,12.30
2019-03-23T22:30:49.945Z,12.97
2019-03-23T22:33:20.414Z,13.03
2019-03-23T22:35:50.932Z,12.37
2019-03-23T22:38:21.316Z,12.27
2019-03-23T22:40:51.715Z,10.70
2019-03-23T22:43:22.102Z,13.13
2019-03-23T22:45:52.457Z,14.47
2019-03-23T22:48:22.874Z,14.33
2019-03-23T22:50:53.253Z,20.03
2019-03-23T22:53:23.696Z,12.70
2019-03-23T22:55:54.071Z,13.13
2019-03-23T22:58:24.476Z,13.07
2019-03-23T23:00:55.941Z,12.27
2019-03-23T23:03:26.309Z,12.53
2019-03-23T23:05:56.723Z,11.43
2019-03-23T23:08:27.010Z,11.57
2019-03-23T23:10:57.419Z,12.93
2019-03-23T23:13:27.860Z,15.00
2019-03-23T23:15:58.260Z,14.37
2019-03-23T23:18:28.713Z,12.13
2019-03-23T23:20:59.152Z,13.97
2019-03-23T23:23:29.547Z,13.17
2019-03-23T23:26:00.017Z,15.90
2019-03-23T23:28:30.429Z,17.60
2019-03-23T23:31:00.855Z,15.67
2019-03-23T23:33:31.276Z,17.57
2019-03-23T23:36:01.770Z,14.87
2019-03-23T23:38:32.234Z,18.83
2019-03-23T23:41:02.642Z,13.67
2019-03-23T23:43:33.159Z,15.60
2019-03-23T23:46:03.616Z,16.23
2019-03-23T23:48:34.047Z,18.47
2019-03-23T23:51:04.435Z,16.27
2019-03-23T23:53:34.871Z,14.20
2019-03-23T23:56:05.276Z,17.57
2019-03-23T23:58:35.651Z,15.77
